Time;durP1;ratioP1;P1;durP2;ratioP2;P2;SDS_P1;SDS_P2;PMS_P1;PMS_P2;Temp;Humidity;BMP_temperature;BMP_pressure;BME280_temperature;BME280_humidity;BME280_pressure;Samples;Min_cycle;Max_cycle;Signal;HPM_P1;HPM_P2
2021/05/27 00:00:55;;;;;;;8.93;4.25;;;;;;;13.62;82.11;97643.46;1699249;84;21027;-72
2021/05/27 00:03:22;;;;;;;6.67;4.05;;;;;;;13.56;80.27;97642.81;1703260;82;21109;-71
2021/05/27 00:05:49;;;;;;;7.05;4.87;;;;;;;13.52;79.86;97646.55;1706217;83;21042;-71
2021/05/27 00:08:15;;;;;;;9.98;4.95;;;;;;;13.52;79.79;97644.34;1733605;83;21062;-72
2021/05/27 00:10:42;;;;;;;6.35;4.47;;;;;;;13.45;79.81;97647.28;1733578;83;21077;-71
2021/05/27 00:13:08;;;;;;;6.17;4.22;;;;;;;13.38;80.22;97652.96;1733484;83;21030;-71
2021/05/27 00:15:35;;;;;;;7.37;4.00;;;;;;;13.29;80.39;97652.45;1733549;83;21038;-72
2021/05/27 00:18:01;;;;;;;6.50;4.03;;;;;;;13.28;80.46;97642.73;1733659;83;21090;-72
2021/05/27 00:20:28;;;;;;;5.62;3.47;;;;;;;13.32;80.59;97643.45;1733519;83;21061;-71
2021/05/27 00:22:54;;;;;;;4.10;3.08;;;;;;;13.36;80.59;97633.55;1733564;83;21077;-72
2021/05/27 00:25:21;;;;;;;6.80;3.30;;;;;;;13.38;80.96;97644.52;1733580;83;21026;-72
2021/05/27 00:27:49;;;;;;;4.55;3.42;;;;;;;13.42;81.32;97639.91;1724988;83;21038;-72
2021/05/27 00:30:17;;;;;;;5.87;3.10;;;;;;;13.45;81.23;97641.08;1733424;83;21042;-72
2021/05/27 00:32:46;;;;;;;5.25;3.05;;;;;;;13.52;81.26;97643.02;1704606;83;21062;-72
2021/05/27 00:35:13;;;;;;;4.53;2.60;;;;;;;13.59;81.62;97641.32;1729322;83;21035;-72
2021/05/27 00:37:41;;;;;;;6.80;3.17;;;;;;;13.66;81.41;97642.38;1720263;83;21542;-72
2021/05/27 00:40:11;;;;;;;6.05;3.30;;;;;;;13.68;81.32;97642.70;1720294;83;21015;-72
2021/05/27 00:42:38;;;;;;;6.85;3.92;;;;;;;13.74;81.39;97640.19;1720315;83;21042;-72
2021/05/27 00:45:09;;;;;;;6.03;3.00;;;;;;;13.77;81.43;97639.18;1720498;83;21047;-72
2021/05/27 00:47:37;;;;;;;6.75;3.15;;;;;;;13.77;81.35;97644.51;1720490;83;21074;-72
2021/05/27 00:50:08;;;;;;;4.22;2.72;;;;;;;13.83;81.64;97646.41;1720455;83;21074;-72
2021/05/27 00:52:35;;;;;;;5.40;2.95;;;;;;;13.87;81.39;97640.45;1722352;83;21030;-72
2021/05/27 00:55:06;;;;;;;4.40;3.00;;;;;;;13.92;80.94;97635.80;1710689;83;21516;-72
2021/05/27 00:57:36;;;;;;;8.58;4.03;;;;;;;13.97;80.68;97636.43;1713240;83;21467;-72
2021/05/27 01:00:11;;;;;;;3.33;2.67;;;;;;;13.97;80.17;97636.89;1733324;83;21046;-72
2021/05/27 01:02:37;;;;;;;6.08;3.05;;;;;;;13.94;80.04;97631.24;1716584;83;20994;-73
2021/05/27 01:05:08;;;;;;;4.37;3.00;;;;;;;13.92;79.94;97633.13;1733668;83;21172;-72
2021/05/27 01:07:35;;;;;;;3.75;3.10;;;;;;;13.90;79.85;97623.00;1692839;83;21522;-72
2021/05/27 01:10:05;;;;;;;5.70;3.00;;;;;;;13.86;80.08;97620.09;1690332;85;21004;-73
2021/05/27 01:12:33;;;;;;;4.83;3.05;;;;;;;13.85;79.80;97633.02;1690336;84;21059;-73
2021/05/27 01:17:46;;;;;;;10.00;3.77;;;;;;;13.84;80.35;97634.81;1701718;82;21102;-73
2021/05/27 01:20:13;;;;;;;5.40;3.37;;;;;;;13.76;81.68;97636.13;1703143;83;21049;-72
2021/05/27 01:22:40;;;;;;;5.25;3.30;;;;;;;13.71;81.36;97631.88;1679726;85;21537;-73
2021/05/27 01:25:12;;;;;;;4.35;3.17;;;;;;;13.69;81.31;97635.55;1684327;85;21000;-73
2021/05/27 01:27:39;;;;;;;5.85;3.62;;;;;;;13.66;81.67;97635.23;1690465;84;21465;-73
2021/05/27 01:30:10;;;;;;;4.08;3.35;;;;;;;13.65;80.68;97632.64;1690469;85;21508;-72
2021/05/27 01:32:39;;;;;;;6.20;3.80;;;;;;;13.62;80.93;97630.98;1690484;85;21074;-72
2021/05/27 01:35:11;;;;;;;5.12;3.58;;;;;;;13.61;80.65;97630.60;1690473;84;21019;-71
2021/05/27 01:37:37;;;;;;;3.35;3.05;;;;;;;13.62;81.28;97627.00;1690227;84;21016;-72
2021/05/27 01:40:06;;;;;;;3.62;3.12;;;;;;;13.62;80.74;97623.48;1690457;85;21147;-72
2021/05/27 01:42:33;;;;;;;7.62;3.40;;;;;;;13.59;81.09;97625.83;1698852;84;21011;-71
2021/05/27 01:44:59;;;;;;;7.45;3.60;;;;;;;13.57;81.70;97631.68;1707940;83;21070;-72
2021/05/27 01:47:27;;;;;;;4.83;3.22;;;;;;;13.54;80.70;97631.84;1684786;83;21033;-72
2021/05/27 01:49:53;;;;;;;7.33;3.33;;;;;;;13.50;80.72;97627.14;1682568;85;21509;-72
2021/05/27 01:52:20;;;;;;;5.25;4.08;;;;;;;13.42;82.53;97625.27;1690179;85;21034;-72
2021/05/27 01:54:47;;;;;;;5.30;3.42;;;;;;;13.36;81.06;97621.09;1690406;85;21016;-72
2021/05/27 01:57:14;;;;;;;4.90;3.75;;;;;;;13.34;81.68;97629.63;1676740;85;21035;-72
2021/05/27 01:59:41;;;;;;;7.03;3.77;;;;;;;13.30;81.38;97624.05;1690501;85;21011;-72
2021/05/27 02:02:10;;;;;;;4.72;3.27;;;;;;;13.27;81.40;97622.84;1690510;85;21533;-72
2021/05/27 02:04:36;;;;;;;5.67;3.30;;;;;;;13.25;82.50;97618.08;1690364;85;21039;-71
2021/05/27 02:07:14;;;;;;;5.08;3.60;;;;;;;13.20;82.56;97621.81;1691422;83;21053;-71
2021/05/27 02:09:43;;;;;;;5.83;3.35;;;;;;;13.19;82.53;97621.88;1690492;84;21541;-72
2021/05/27 02:12:10;;;;;;;4.30;2.95;;;;;;;13.17;82.28;97619.28;1708100;84;21485;-72
2021/05/27 02:14:37;;;;;;;3.50;2.70;;;;;;;13.18;81.88;97617.49;1683140;84;21005;-72
2021/05/27 02:17:04;;;;;;;7.37;3.20;;;;;;;13.17;83.21;97617.95;1679733;85;21092;-72
2021/05/27 02:19:31;;;;;;;3.75;2.98;;;;;;;13.18;82.34;97629.02;1689222;85;21015;-72
2021/05/27 02:21:57;;;;;;;3.72;3.20;;;;;;;13.17;82.34;97619.28;1690595;84;21051;-73
2021/05/27 02:24:26;;;;;;;4.60;2.85;;;;;;;13.15;82.46;97610.52;1688184;85;21121;-73
2021/05/27 02:26:53;;;;;;;5.25;2.98;;;;;;;13.14;82.68;97623.88;1690557;85;21062;-73
2021/05/27 02:29:20;;;;;;;6.92;3.30;;;;;;;13.07;82.72;97625.50;1690667;84;21054;-73
2021/05/27 02:31:47;;;;;;;6.28;2.62;;;;;;;13.02;82.73;97626.64;1695110;84;21039;-73
2021/05/27 02:34:15;;;;;;;4.60;2.80;;;;;;;13.05;82.74;97619.38;1703310;84;21036;-73
2021/05/27 02:36:44;;;;;;;4.87;3.12;;;;;;;13.12;82.65;97624.44;1695772;84;21061;-74
2021/05/27 02:39:12;;;;;;;5.35;3.10;;;;;;;13.06;82.58;97619.80;1679888;85;21073;-73
2021/05/27 02:41:47;;;;;;;4.95;3.40;;;;;;;13.04;82.94;97616.33;1686520;85;21461;-73
2021/05/27 02:44:15;;;;;;;3.65;2.90;;;;;;;13.03;82.69;97613.73;1690433;84;21059;-74
2021/05/27 02:46:44;;;;;;;3.33;2.98;;;;;;;13.05;82.84;97616.71;1690638;84;21146;-73
2021/05/27 02:49:11;;;;;;;9.98;4.35;;;;;;;13.08;83.91;97619.70;1690440;85;21036;-72
2021/05/27 02:51:39;;;;;;;3.85;3.08;;;;;;;13.10;83.06;97622.30;1690538;84;21078;-72
2021/05/27 02:54:07;;;;;;;5.58;3.52;;;;;;;13.14;82.61;97620.77;1690491;85;21063;-72
2021/05/27 02:56:35;;;;;;;7.58;3.70;;;;;;;13.15;82.47;97621.61;1692063;84;21031;-75
2021/05/27 02:59:03;;;;;;;5.60;3.27;;;;;;;13.12;82.07;97618.62;1708071;84;21007;-75
2021/05/27 03:01:29;;;;;;;4.58;3.00;;;;;;;13.12;82.33;97613.80;1692485;83;21556;-75
2021/05/27 03:03:56;;;;;;;3.20;2.70;;;;;;;13.10;82.37;97628.49;1694781;82;21023;-75
2021/05/27 03:06:23;;;;;;;4.85;3.15;;;;;;;13.04;82.11;97621.64;1709449;83;21532;-75
2021/05/27 03:08:51;;;;;;;6.30;3.22;;;;;;;12.97;81.98;97620.67;1688478;84;21071;-75
2021/05/27 03:11:21;;;;;;;12.53;7.75;;;;;;;12.95;82.40;97624.72;1701888;83;21526;-75
2021/05/27 03:13:50;;;;;;;4.67;3.55;;;;;;;12.92;82.38;97631.04;1728108;83;21029;-74
2021/05/27 03:16:17;;;;;;;4.28;3.47;;;;;;;12.89;82.34;97625.88;1707788;82;21882;-74
2021/05/27 03:18:45;;;;;;;10.48;3.58;;;;;;;12.85;84.12;97621.63;1718673;83;21165;-74
2021/05/27 03:21:12;;;;;;;9.05;3.30;;;;;;;12.85;82.52;97618.09;1715685;83;21478;-74
2021/05/27 03:23:39;;;;;;;7.80;3.33;;;;;;;12.79;82.71;97617.92;1733645;82;21005;-73
2021/05/27 03:26:06;;;;;;;5.78;3.40;;;;;;;12.75;82.72;97623.82;1741347;82;21053;-73
2021/05/27 03:28:32;;;;;;;3.37;3.08;;;;;;;12.76;82.95;97628.23;1741368;82;21116;-74
2021/05/27 03:31:00;;;;;;;5.55;3.30;;;;;;;12.78;82.94;97624.14;1740613;82;21064;-74
2021/05/27 03:33:27;;;;;;;6.03;3.15;;;;;;;12.76;83.09;97634.88;1741226;82;21518;-74
2021/05/27 03:35:55;;;;;;;7.05;3.17;;;;;;;12.76;83.03;97634.00;1741340;82;21033;-75
2021/05/27 03:38:22;;;;;;;6.30;3.35;;;;;;;12.71;83.25;97631.53;1723334;82;21086;-73
2021/05/27 03:40:51;;;;;;;4.20;3.20;;;;;;;12.64;82.99;97626.09;1706325;83;21058;-73
2021/05/27 03:43:18;;;;;;;5.90;3.67;;;;;;;12.56;82.71;97626.89;1715556;84;21038;-74
2021/05/27 03:45:44;;;;;;;5.60;3.42;;;;;;;12.51;83.07;97629.77;1715486;84;21129;-74
2021/05/27 03:48:13;;;;;;;5.47;3.22;;;;;;;12.46;83.66;97627.28;1718921;82;21131;-74
2021/05/27 03:50:40;;;;;;;10.35;3.72;;;;;;;12.47;82.79;97625.05;1714244;83;21041;-73
2021/05/27 03:53:11;;;;;;;5.83;3.10;;;;;;;12.52;82.93;97627.50;1714496;83;22163;-74
2021/05/27 03:55:38;;;;;;;4.40;3.30;;;;;;;12.56;83.67;97627.77;1714125;83;21019;-74
2021/05/27 04:00:53;;;;;;;5.58;3.08;;;;;;;12.69;84.43;97634.73;1719229;83;21038;-73
2021/05/27 04:03:23;;;;;;;7.25;3.80;;;;;;;12.75;85.45;97636.27;1723103;83;21533;-74
2021/05/27 04:08:35;;;;;;;8.03;3.33;;;;;;;12.85;84.63;97638.91;1683718;84;21504;-74
2021/05/27 04:11:02;;;;;;;5.90;3.37;;;;;;;12.90;84.78;97632.05;1678848;85;21520;-73
2021/05/27 04:13:28;;;;;;;8.00;3.30;;;;;;;12.98;84.67;97631.24;1698447;84;21519;-73
2021/05/27 04:15:54;;;;;;;7.45;3.10;;;;;;;13.07;84.49;97625.96;1678369;83;21061;-73
2021/05/27 04:18:22;;;;;;;7.08;3.20;;;;;;;13.13;84.19;97633.69;1713802;83;21037;-73
2021/05/27 04:20:54;;;;;;;6.10;3.20;;;;;;;13.18;83.79;97637.45;1703017;84;21085;-73
2021/05/27 04:23:33;;;;;;;4.58;3.30;;;;;;;13.17;83.23;97639.23;1700587;84;21014;-73
2021/05/27 04:26:02;;;;;;;4.15;3.17;;;;;;;13.17;83.09;97631.73;1700533;84;21555;-72
2021/05/27 04:28:31;;;;;;;6.10;3.22;;;;;;;13.23;82.73;97623.92;1705159;83;21089;-72
2021/05/27 04:31:14;;;;;;;6.62;3.45;;;;;;;13.27;82.47;97630.37;1704977;83;21047;-72
2021/05/27 04:33:47;;;;;;;5.35;3.45;;;;;;;13.31;82.92;97628.42;1715299;84;21102;-73
2021/05/27 04:36:16;;;;;;;4.22;3.37;;;;;;;13.32;81.93;97623.04;1683686;84;21508;-74
2021/05/27 04:38:44;;;;;;;4.97;3.22;;;;;;;13.35;81.90;97630.02;1680623;85;21019;-75
2021/05/27 04:41:11;;;;;;;5.35;3.80;;;;;;;13.37;81.69;97625.95;1715383;83;21019;-75
2021/05/27 04:43:39;;;;;;;6.22;3.15;;;;;;;13.38;81.82;97624.56;1715396;84;21074;-73
2021/05/27 04:46:08;;;;;;;6.97;3.37;;;;;;;13.42;81.48;97621.28;1715383;84;21134;-73
2021/05/27 04:48:34;;;;;;;7.45;3.77;;;;;;;13.46;81.61;97625.04;1719002;82;21041;-73
2021/05/27 04:51:02;;;;;;;6.58;3.62;;;;;;;13.49;81.48;97629.38;1719236;83;21469;-73
2021/05/27 04:53:28;;;;;;;7.45;3.62;;;;;;;13.54;81.39;97625.19;1706036;83;21033;-73
2021/05/27 04:55:57;;;;;;;5.37;3.33;;;;;;;13.58;81.31;97621.45;1708423;83;21039;-73
2021/05/27 04:58:23;;;;;;;6.45;3.35;;;;;;;13.62;81.77;97619.50;1702521;84;21067;-73
2021/05/27 05:00:51;;;;;;;5.25;3.87;;;;;;;13.65;81.55;97629.52;1691277;84;21519;-73
2021/05/27 05:03:18;;;;;;;8.28;3.40;;;;;;;13.69;81.08;97627.57;1686729;85;21079;-73
2021/05/27 05:05:45;;;;;;;5.87;3.40;;;;;;;13.72;80.87;97620.31;1712269;82;21077;-73
2021/05/27 05:08:13;;;;;;;6.12;3.62;;;;;;;13.78;80.87;97624.95;1713391;82;21023;-75
2021/05/27 05:10:43;;;;;;;5.67;3.37;;;;;;;13.82;81.63;97627.83;1707737;83;21492;-79
2021/05/27 05:13:10;;;;;;;6.28;3.40;;;;;;;13.88;80.87;97630.67;1713601;83;21528;-77
2021/05/27 05:15:40;;;;;;;7.92;3.85;;;;;;;13.91;81.09;97634.05;1711548;83;21113;-77
2021/05/27 05:18:11;;;;;;;7.75;3.30;;;;;;;13.95;80.72;97634.30;1712795;83;21491;-76
2021/05/27 05:20:44;;;;;;;5.37;3.40;;;;;;;13.99;80.94;97631.00;1711286;83;21022;-80
2021/05/27 05:23:12;;;;;;;3.90;3.42;;;;;;;14.04;80.65;97628.97;1704341;84;21091;-80
2021/05/27 05:25:41;;;;;;;7.55;3.60;;;;;;;14.10;80.42;97630.48;1711743;83;21030;-83
2021/05/27 05:28:11;;;;;;;5.92;3.42;;;;;;;14.16;80.60;97632.83;1713865;83;21009;-82
2021/05/27 05:30:38;;;;;;;5.03;3.27;;;;;;;14.24;80.22;97633.77;1713077;83;21129;-82
2021/05/27 05:33:05;;;;;;;6.47;3.10;;;;;;;14.31;80.08;97625.88;1714680;83;21439;-81
2021/05/27 05:35:32;;;;;;;4.03;3.35;;;;;;;14.36;79.98;97637.16;1713652;83;21042;-81
2021/05/27 05:37:59;;;;;;;9.08;6.40;;;;;;;14.45;79.64;97639.82;1706736;83;21008;-79
2021/05/27 05:40:31;;;;;;;10.93;7.30;;;;;;;14.54;79.37;97633.63;1716039;83;21035;-79
2021/05/27 05:42:58;;;;;;;4.78;3.27;;;;;;;14.64;79.14;97633.55;1707107;83;21020;-79
2021/05/27 05:45:27;;;;;;;5.22;3.25;;;;;;;14.74;78.35;97637.94;1720115;83;21088;-80
2021/05/27 05:47:53;;;;;;;5.67;3.02;;;;;;;14.85;78.52;97636.92;1724252;83;21093;-80
2021/05/27 05:53:09;;;;;;;4.95;3.00;;;;;;;15.10;78.42;97642.75;1724406;83;21419;-81
2021/05/27 05:55:37;;;;;;;4.37;2.17;;;;;;;15.27;77.43;97644.50;1707059;83;21067;-81
2021/05/27 05:58:04;;;;;;;2.95;2.47;;;;;;;15.39;77.71;97651.86;1708873;83;21046;-81
2021/05/27 06:00:32;;;;;;;6.75;2.77;;;;;;;15.52;77.48;97654.71;1717819;83;21135;-81
2021/05/27 06:02:59;;;;;;;2.80;2.47;;;;;;;15.65;77.65;97650.03;1716625;83;21005;-81
2021/05/27 06:05:27;;;;;;;4.67;2.98;;;;;;;15.78;76.46;97648.87;1712589;83;21078;-82
2021/05/27 06:08:05;;;;;;;6.87;2.83;;;;;;;15.89;77.13;97652.24;1698370;83;21075;-85
2021/05/27 06:10:32;;;;;;;3.87;2.80;;;;;;;15.99;75.38;97648.16;1691640;84;21059;-81
2021/05/27 06:12:59;;;;;;;4.40;2.70;;;;;;;16.06;74.42;97644.16;1690010;85;21015;-81
2021/05/27 06:15:28;;;;;;;6.28;2.87;;;;;;;16.13;75.41;97645.14;1690209;85;21497;-83
2021/05/27 06:17:56;;;;;;;6.17;3.10;;;;;;;16.22;74.97;97649.95;1690219;85;21099;-84
2021/05/27 06:20:22;;;;;;;3.70;2.62;;;;;;;16.32;74.63;97644.45;1668827;84;21022;-83
2021/05/27 06:22:50;;;;;;;4.80;2.70;;;;;;;16.41;74.57;97631.03;1699602;84;21064;-79
2021/05/27 06:25:21;;;;;;;2.70;2.17;;;;;;;16.49;73.44;97624.73;1702845;84;21123;-80
2021/05/27 06:27:49;;;;;;;2.20;2.00;;;;;;;16.56;71.63;97632.41;1707527;83;21558;-80
2021/05/27 06:30:16;;;;;;;5.92;4.37;;;;;;;16.62;70.76;97626.19;1707756;83;21078;-80
2021/05/27 06:32:43;;;;;;;3.30;1.90;;;;;;;16.71;71.52;97628.80;1707315;83;20999;-81
2021/05/27 06:35:12;;;;;;;5.78;2.10;;;;;;;16.80;69.79;97631.39;1709965;83;21607;-76
2021/05/27 06:37:39;;;;;;;4.22;2.25;;;;;;;16.85;69.71;97631.97;1709704;83;21017;-76
2021/05/27 06:40:11;;;;;;;2.15;1.85;;;;;;;16.91;67.83;97634.75;1709784;83;21105;-76
2021/05/27 06:42:37;;;;;;;2.77;1.80;;;;;;;17.00;65.73;97631.52;1709241;84;21046;-74
2021/05/27 06:45:06;;;;;;;3.62;1.90;;;;;;;17.07;65.51;97630.66;1705339;83;20987;-74
2021/05/27 06:47:32;;;;;;;4.00;2.02;;;;;;;17.12;65.38;97629.92;1699337;83;21043;-73
2021/05/27 06:49:58;;;;;;;3.85;2.02;;;;;;;17.18;65.97;97631.84;1695028;84;21664;-73
2021/05/27 06:52:25;;;;;;;4.40;1.92;;;;;;;17.24;67.03;97624.25;1696984;83;21142;-73
2021/05/27 06:54:52;;;;;;;2.80;2.10;;;;;;;17.35;67.27;97621.40;1696680;83;21223;-73
2021/05/27 06:57:19;;;;;;;4.37;2.33;;;;;;;17.40;64.79;97620.12;1695892;84;21095;-74
2021/05/27 06:59:45;;;;;;;5.87;2.62;;;;;;;17.50;66.62;97621.75;1699233;84;21516;-73
2021/05/27 07:02:12;;;;;;;3.95;2.12;;;;;;;17.58;66.83;97625.28;1699264;84;21051;-74
2021/05/27 07:04:38;;;;;;;5.28;2.27;;;;;;;17.61;66.67;97618.86;1701039;84;21070;-74
2021/05/27 07:07:04;;;;;;;4.85;2.30;;;;;;;17.67;67.19;97618.45;1699978;84;21047;-75
2021/05/27 07:09:30;;;;;;;4.35;2.12;;;;;;;17.75;66.73;97619.30;1735796;83;21114;-74
2021/05/27 07:11:57;;;;;;;4.30;2.50;;;;;;;17.86;66.92;97622.63;1735656;83;21500;-74
2021/05/27 07:14:24;;;;;;;5.45;2.50;;;;;;;17.93;67.01;97619.91;1735556;83;21013;-74
2021/05/27 07:16:51;;;;;;;7.42;2.90;;;;;;;18.00;66.86;97618.55;1736359;81;21546;-75
2021/05/27 07:19:17;;;;;;;4.35;3.00;;;;;;;18.07;66.89;97615.02;1736311;83;21077;-75
2021/05/27 07:21:44;;;;;;;9.05;2.75;;;;;;;18.15;65.81;97610.48;1736340;83;21058;-75
2021/05/27 07:24:11;;;;;;;5.60;2.87;;;;;;;18.20;66.34;97602.48;1736152;82;21100;-73
2021/05/27 07:26:37;;;;;;;5.33;2.85;;;;;;;18.26;65.75;97598.55;1736229;83;21037;-73
2021/05/27 07:29:04;;;;;;;6.83;3.05;;;;;;;18.33;65.92;97593.63;1736242;83;21135;-73
2021/05/27 07:31:32;;;;;;;6.25;3.00;;;;;;;18.35;65.70;97594.36;1736392;81;21093;-73
2021/05/27 07:33:59;;;;;;;7.00;3.40;;;;;;;18.39;65.61;97600.41;1741399;82;21126;-73
2021/05/27 07:36:26;;;;;;;4.80;3.25;;;;;;;18.42;65.05;97600.18;1736271;82;21100;-73
2021/05/27 07:38:53;;;;;;;7.90;3.52;;;;;;;18.49;65.57;97596.12;1736422;83;21026;-73
2021/05/27 07:41:19;;;;;;;6.97;3.65;;;;;;;18.55;65.45;97593.02;1736350;82;21103;-73
2021/05/27 07:43:46;;;;;;;4.87;4.00;;;;;;;18.58;65.09;97592.81;1736308;83;21102;-74
2021/05/27 07:46:12;;;;;;;7.50;4.00;;;;;;;18.63;64.36;97583.59;1729387;83;21022;-74
2021/05/27 07:48:38;;;;;;;5.60;3.15;;;;;;;18.63;64.21;97586.27;1736391;81;21016;-73
2021/05/27 07:51:05;;;;;;;8.60;4.55;;;;;;;18.67;64.92;97584.59;1737871;82;21029;-73
2021/05/27 07:53:32;;;;;;;8.70;4.50;;;;;;;18.73;64.57;97587.34;1736352;83;21061;-73
2021/05/27 07:55:58;;;;;;;11.53;4.40;;;;;;;18.76;64.35;97578.22;1736385;83;21078;-76
2021/05/27 07:58:25;;;;;;;9.00;4.75;;;;;;;18.85;64.63;97578.42;1736270;83;21646;-73
2021/05/27 08:00:51;;;;;;;7.83;4.90;;;;;;;19.00;65.15;97583.67;1731661;83;21019;-73
2021/05/27 08:03:17;;;;;;;7.80;5.30;;;;;;;19.12;65.00;97584.66;1706193;82;21514;-73
2021/05/27 08:05:44;;;;;;;12.53;6.30;;;;;;;19.22;64.78;97587.56;1707030;84;21067;-73
2021/05/27 08:08:11;;;;;;;8.08;5.00;;;;;;;19.30;64.51;97579.79;1694780;84;21114;-73
2021/05/27 08:10:37;;;;;;;9.88;5.67;;;;;;;19.38;64.44;97574.73;1670199;85;21444;-73
2021/05/27 08:13:06;;;;;;;12.53;5.25;;;;;;;19.47;64.50;97573.19;1674550;85;21079;-74
2021/05/27 08:15:32;;;;;;;9.35;4.97;;;;;;;19.56;63.22;97571.65;1667832;86;21063;-75
2021/05/27 08:17:59;;;;;;;7.05;4.45;;;;;;;19.59;63.76;97566.06;1667614;86;21083;-74
2021/05/27 08:20:25;;;;;;;8.23;4.80;;;;;;;19.64;63.87;97566.58;1674332;85;21130;-75
2021/05/27 08:22:52;;;;;;;19.07;11.05;;;;;;;19.69;63.76;97569.41;1675887;85;21115;-75
2021/05/27 08:25:18;;;;;;;12.47;6.60;;;;;;;19.73;63.51;97562.84;1677525;84;21055;-74
2021/05/27 08:27:45;;;;;;;5.30;4.00;;;;;;;19.82;63.53;97563.51;1678959;85;21083;-77
2021/05/27 08:30:12;;;;;;;5.70;3.45;;;;;;;19.92;62.27;97559.63;1677803;85;21043;-77
2021/05/27 08:32:39;;;;;;;6.85;3.92;;;;;;;20.02;62.51;97568.74;1677278;85;21162;-77
2021/05/27 08:35:07;;;;;;;5.70;3.30;;;;;;;20.08;61.77;97567.91;1678624;85;21094;-76
2021/05/27 08:37:37;;;;;;;5.22;3.50;;;;;;;20.11;61.77;97558.27;1678801;84;21039;-78
2021/05/27 08:40:04;;;;;;;6.65;3.60;;;;;;;20.18;60.40;97562.23;1674566;84;21670;-77
2021/05/27 08:42:31;;;;;;;5.00;3.95;;;;;;;20.24;61.30;97564.92;1676124;85;21082;-76
2021/05/27 08:45:00;;;;;;;9.35;7.05;;;;;;;20.29;61.00;97566.77;1677105;84;21087;-77
2021/05/27 08:47:28;;;;;;;5.70;4.42;;;;;;;20.34;60.69;97559.20;1674183;85;21011;-76
2021/05/27 08:49:56;;;;;;;6.25;4.40;;;;;;;20.36;60.00;97552.36;1677996;85;21102;-75
2021/05/27 08:52:22;;;;;;;7.58;3.92;;;;;;;20.42;60.02;97548.71;1647949;85;21027;-76
2021/05/27 08:54:49;;;;;;;7.15;3.92;;;;;;;20.53;60.31;97552.40;1678208;85;21055;-76
2021/05/27 08:57:15;;;;;;;7.70;3.83;;;;;;;20.66;60.07;97549.13;1676919;85;21055;-76
2021/05/27 08:59:42;;;;;;;9.78;3.52;;;;;;;20.79;59.88;97550.84;1678610;85;21138;-76
2021/05/27 09:02:11;;;;;;;5.12;3.20;;;;;;;20.84;59.49;97542.77;1677545;85;21111;-76
2021/05/27 09:04:39;;;;;;;8.55;3.60;;;;;;;20.83;59.53;97537.50;1677420;85;21043;-77
2021/05/27 09:07:08;;;;;;;5.00;3.70;;;;;;;20.86;59.74;97541.78;1678455;85;21067;-76
2021/05/27 09:09:55;;;;;;;5.30;3.02;;;;;;;20.86;58.77;97540.44;1694546;84;21615;-75
2021/05/27 09:12:33;;;;;;;4.15;3.30;;;;;;;20.97;59.41;97538.64;1697393;84;21067;-76
2021/05/27 09:15:02;;;;;;;5.40;3.27;;;;;;;21.14;58.92;97539.63;1698556;84;21007;-76
2021/05/27 09:17:52;;;;;;;3.85;3.30;;;;;;;21.20;57.90;97533.25;1696424;84;21031;-75
2021/05/27 09:20:24;;;;;;;5.40;4.00;;;;;;;21.30;58.06;97524.42;1697240;84;21015;-76
2021/05/27 09:23:14;;;;;;;5.20;3.15;;;;;;;21.46;57.72;97525.34;1696607;84;20995;-76
2021/05/27 09:25:48;;;;;;;7.67;3.75;;;;;;;21.59;57.63;97520.66;1674536;84;21066;-76
2021/05/27 09:28:20;;;;;;;;;;;;;;;21.73;56.61;97518.22;1698808;84;21515;-76
2021/05/27 09:30:53;;;;;;;5.95;3.62;;;;;;;21.83;55.11;97516.08;1696029;84;20183;-76
2021/05/27 09:33:40;;;;;;;6.50;3.57;;;;;;;21.95;56.59;97500.70;1697937;84;21050;-75
2021/05/27 09:36:13;;;;;;;9.08;3.52;;;;;;;22.01;55.79;97505.09;1696018;84;21046;-75
2021/05/27 09:38:47;;;;;;;4.65;3.55;;;;;;;22.18;55.18;97510.05;1700137;84;21067;-75
2021/05/27 09:41:15;;;;;;;;;;;;;;;22.31;55.32;97503.97;1697726;84;21104;-75
2021/05/27 09:43:46;;;;;;;6.87;3.33;;;;;;;22.45;54.04;97508.16;1700155;84;20197;-76
2021/05/27 09:46:13;;;;;;;5.08;3.10;;;;;;;22.57;53.37;97497.30;1699342;84;21055;-75
2021/05/27 09:48:39;;;;;;;6.53;3.60;;;;;;;22.79;53.51;97499.84;1698828;83;21046;-75
2021/05/27 09:51:07;;;;;;;4.17;3.10;;;;;;;22.97;53.32;97500.57;1700157;84;21058;-76
2021/05/27 09:53:35;;;;;;;4.35;3.12;;;;;;;22.97;51.10;97491.59;1699522;84;21035;-76
2021/05/27 09:56:05;;;;;;;5.85;3.83;;;;;;;22.98;51.81;97482.49;1698606;84;21007;-76
2021/05/27 09:58:32;;;;;;;3.85;3.17;;;;;;;23.19;52.39;97486.47;1696612;84;21480;-76
2021/05/27 10:01:08;;;;;;;5.58;3.58;;;;;;;23.40;51.48;97481.01;1700055;84;21043;-76
2021/05/27 10:03:41;;;;;;;9.33;3.40;;;;;;;23.57;49.77;97479.47;1695510;84;21499;-74
2021/05/27 10:06:10;;;;;;;6.53;3.10;;;;;;;23.69;49.17;97481.55;1696289;84;21515;-75
2021/05/27 10:08:56;;;;;;;4.33;3.20;;;;;;;23.85;50.02;97478.28;1703154;83;21506;-74
2021/05/27 10:11:25;;;;;;;4.62;3.27;;;;;;;24.04;49.21;97473.83;1714216;83;21093;-74
2021/05/27 10:13:53;;;;;;;6.28;3.10;;;;;;;24.18;49.26;97471.23;1712652;83;21041;-74
2021/05/27 10:16:27;;;;;;;9.90;3.80;;;;;;;24.18;48.49;97464.46;1723196;83;21066;-75
2021/05/27 10:18:54;;;;;;;4.78;3.42;;;;;;;24.06;46.82;97467.80;1714419;83;21065;-76
2021/05/27 10:21:23;;;;;;;6.58;3.55;;;;;;;23.90;47.56;97464.80;1712051;83;21132;-73
2021/05/27 10:23:51;;;;;;;5.42;3.60;;;;;;;23.84;49.33;97458.95;1713882;82;21574;-75
2021/05/27 10:26:18;;;;;;;6.70;3.80;;;;;;;23.96;49.09;97458.83;1717595;82;21049;-75
2021/05/27 10:28:52;;;;;;;6.20;3.67;;;;;;;24.02;48.26;97456.89;1713424;83;21053;-74
2021/05/27 10:31:23;;;;;;;5.33;3.65;;;;;;;24.04;48.02;97458.11;1711555;83;21050;-74
2021/05/27 10:33:49;;;;;;;5.20;3.27;;;;;;;23.88;48.12;97450.56;1711764;83;21156;-74
2021/05/27 10:36:16;;;;;;;5.62;3.40;;;;;;;23.96;48.93;97454.25;1671717;84;21085;-74
2021/05/27 10:38:49;;;;;;;7.72;4.10;;;;;;;24.19;48.69;97452.63;1702293;83;21041;-75
2021/05/27 10:41:23;;;;;;;7.78;4.00;;;;;;;24.55;48.51;97451.97;1700210;84;21371;-73
2021/05/27 10:44:06;;;;;;;6.08;3.20;;;;;;;24.89;48.20;97447.86;1696055;84;21547;-75
2021/05/27 10:46:46;;;;;;;6.78;4.15;;;;;;;24.95;47.56;97437.77;1711250;83;20975;-74
2021/05/27 10:49:32;;;;;;;5.78;4.00;;;;;;;25.62;46.04;97446.66;1693024;84;21488;-74
2021/05/27 10:52:32;;;;;;;8.98;3.65;;;;;;;26.55;43.60;97439.06;1714195;82;21018;-74
2021/05/27 10:54:58;;;;;;;7.25;3.92;;;;;;;26.41;43.24;97437.28;1716020;83;21085;-75
2021/05/27 10:57:46;;;;;;;6.80;3.33;;;;;;;26.52;43.18;97436.16;1696823;83;21425;-74
2021/05/27 11:00:32;;;;;;;4.50;3.40;;;;;;;26.76;43.99;97429.16;1727366;83;21030;-74
2021/05/27 11:03:42;;;;;;;6.72;4.72;;;;;;;27.04;43.21;97431.69;1709838;83;21622;-74
2021/05/27 11:06:31;;;;;;;6.55;3.52;;;;;;;27.62;42.34;97425.06;1696046;84;21015;-73
2021/05/27 11:09:23;;;;;;;7.37;3.62;;;;;;;28.88;40.68;97425.73;1699978;83;21583;-73
2021/05/27 11:12:16;;;;;;;6.62;3.70;;;;;;;29.87;38.39;97418.39;1700165;84;21110;-72
2021/05/27 11:14:47;;;;;;;4.30;3.58;;;;;;;30.75;36.07;97408.84;1700154;83;21046;-73
2021/05/27 11:17:18;;;;;;;6.37;3.40;;;;;;;31.54;34.98;97407.81;1700016;83;21555;-73
2021/05/27 11:20:03;;;;;;;10.55;3.83;;;;;;;30.75;34.40;97404.75;1700485;83;21545;-74
2021/05/27 11:25:26;;;;;;;4.05;2.90;;;;;;;29.61;35.11;97416.03;1717408;83;21046;-74
2021/05/27 11:28:14;;;;;;;4.83;2.70;;;;;;;28.45;36.03;97411.92;1717281;83;21046;-73
2021/05/27 11:30:45;;;;;;;15.50;4.25;;;;;;;27.79;37.85;97420.48;1717467;83;21018;-74
2021/05/27 11:33:25;;;;;;;4.10;3.00;;;;;;;27.24;38.93;97413.73;1717412;83;21046;-74
2021/05/27 11:35:55;;;;;;;4.35;3.33;;;;;;;26.38;41.27;97406.38;1717391;82;21157;-74
2021/05/27 11:38:25;;;;;;;4.50;2.80;;;;;;;26.38;41.27;97406.38;1717416;83;21050;-74
2021/05/27 11:40:57;;;;;;;3.72;3.05;;;;;;;26.18;40.77;97408.42;1717503;83;21038;-74
2021/05/27 11:43:37;;;;;;;6.28;3.00;;;;;;;25.83;41.67;97409.70;1717596;83;21078;-73
2021/05/27 11:46:08;;;;;;;4.67;3.20;;;;;;;25.71;42.68;97403.67;1717567;83;21043;-73
2021/05/27 11:48:40;;;;;;;9.45;3.35;;;;;;;25.98;42.79;97404.55;1688199;83;21062;-74
2021/05/27 11:51:16;;;;;;;6.65;2.87;;;;;;;26.89;42.46;97398.30;1706255;83;21042;-73
2021/05/27 11:53:54;;;;;;;3.85;2.72;;;;;;;27.70;41.10;97396.13;1717414;83;21587;-73
2021/05/27 11:56:44;;;;;;;5.55;3.55;;;;;;;27.58;39.75;97391.50;1700961;82;21151;-72
2021/05/27 11:59:43;;;;;;;6.15;3.77;;;;;;;28.31;38.96;97379.41;1702665;84;21091;-76